Time;durP1;ratioP1;P1;durP2;ratioP2;P2;SDS_P1;SDS_P2;PMS_P1;PMS_P2;Temp;Humidity;BMP_temperature;BMP_pressure;BME280_temperature;BME280_humidity;BME280_pressure;Samples;Min_cycle;Max_cycle;Signal;HPM_P1;HPM_P2
2023/06/22 00:13:12;;;;;;;;;;;;;;;25.93;56.95;100533.25;41683488;28;19929;-83
2023/06/22 00:33:12;;;;;;;;;;;;;;;25.92;56.78;100532.44;41676253;28;19975;-83
2023/06/22 00:53:13;;;;;;;;;;;;;;;25.48;57.54;100540.97;41683942;28;19964;-85
2023/06/22 01:13:21;;;;;;;;;;;;;;;25.34;57.51;100521.03;41671483;28;20006;-83
2023/06/22 01:33:21;;;;;;;;;;;;;;;25.34;58.41;100526.34;41676678;28;20408;-85
2023/06/22 01:53:22;;;;;;;;;;;;;;;25.35;57.88;100520.06;41635426;28;19933;-84
2023/06/22 02:13:24;;;;;;;;;;;;;;;25.26;58.64;100534.16;41668517;28;19932;-82
2023/06/22 02:33:24;;;;;;;;;;;;;;;25.12;59.36;100532.78;41647109;28;19940;-83
2023/06/22 02:53:24;;;;;;;;;;;;;;;25.07;59.59;100541.16;41676367;28;19935;-86
2023/06/22 03:13:25;;;;;;;;;;;;;;;24.94;60.30;100557.31;41711229;28;19925;-83
2023/06/22 03:33:25;;;;;;;;;;;;;;;24.98;60.00;100549.94;41699612;28;20348;-83
2023/06/22 03:53:25;;;;;;;;;;;;;;;24.94;60.11;100543.25;41704791;28;19971;-85
2023/06/22 04:13:26;;;;;;;;;;;;;;;24.86;60.31;100570.41;41695201;28;19932;-83
2023/06/22 04:33:26;;;;;;;;;;;;;;;24.86;59.96;100569.59;41744153;28;19929;-83
2023/06/22 04:53:29;;;;;;;;;;;;;;;24.90;60.24;100571.84;41721612;28;19929;-76
2023/06/22 05:13:30;;;;;;;;;;;;;;;24.65;59.65;100580.28;41715848;28;20058;-82
2023/06/22 05:33:30;;;;;;;;;;;;;;;24.82;59.68;100606.13;41691040;28;19933;-85
2023/06/22 05:53:30;;;;;;;;;;;;;;;24.86;59.64;100634.00;41720580;28;19913;-82
2023/06/22 06:13:31;;;;;;;;;;;;;;;24.95;59.00;100621.75;41710150;28;19991;-76
2023/06/22 06:33:31;;;;;;;;;;;;;;;24.94;55.41;100614.78;41729770;28;19925;-78
2023/06/22 06:53:31;;;;;;;;;;;;;;;25.03;53.67;100615.75;41810543;28;20032;-75
2023/06/22 07:13:33;;;;;;;;;;;;;;;25.14;51.87;100605.00;41753477;28;20381;-76
2023/06/22 07:33:33;;;;;;;;;;;;;;;25.27;51.03;100591.50;41768579;28;19940;-74
2023/06/22 07:53:34;;;;;;;;;;;;;;;25.40;51.78;100591.22;41772273;28;19932;-76
2023/06/22 08:13:35;;;;;;;;;;;;;;;25.51;50.47;100584.91;41774996;28;19994;-82
2023/06/22 08:33:35;;;;;;;;;;;;;;;25.61;51.32;100575.13;41782759;28;20366;-84
2023/06/22 08:53:36;;;;;;;;;;;;;;;25.68;50.87;100565.63;41759313;28;20017;-83
2023/06/22 09:13:37;;;;;;;;;;;;;;;25.83;51.60;100543.91;41758735;28;19929;-82
2023/06/22 09:33:40;;;;;;;;;;;;;;;26.05;52.26;100524.97;41724020;28;19928;-80
2023/06/22 09:53:40;;;;;;;;;;;;;;;26.34;51.75;100523.16;41773930;28;19925;-81
2023/06/22 10:13:49;;;;;;;;;;;;;;;26.59;51.75;100512.78;41766119;28;19935;-79
2023/06/22 10:33:49;;;;;;;;;;;;;;;26.78;51.63;100499.38;41737787;28;19975;-78
2023/06/22 10:53:50;;;;;;;;;;;;;;;26.86;51.52;100487.16;41729249;28;19994;-80
2023/06/22 11:13:52;;;;;;;;;;;;;;;26.96;51.39;100493.19;41725519;28;20537;-79
2023/06/22 11:33:52;;;;;;;;;;;;;;;27.04;51.28;100474.66;41772429;28;20411;-81
2023/06/22 11:53:54;;;;;;;;;;;;;;;27.17;51.67;100461.78;41796731;28;19929;-79
2023/06/22 12:13:55;;;;;;;;;;;;;;;27.30;52.47;100441.91;41776334;28;20012;-78
2023/06/22 12:33:55;;;;;;;;;;;;;;;27.42;52.84;100421.25;41731215;28;19933;-78
2023/06/22 12:53:56;;;;;;;;;;;;;;;27.53;53.04;100417.47;41761690;28;20015;-79
2023/06/22 13:13:56;;;;;;;;;;;;;;;27.59;52.65;100391.03;41756823;28;19946;-77
2023/06/22 13:33:56;;;;;;;;;;;;;;;27.66;52.34;100377.09;41723334;28;19929;-77
2023/06/22 13:53:57;;;;;;;;;;;;;;;27.71;51.50;100366.78;41697090;28;20347;-77
2023/06/22 14:13:57;;;;;;;;;;;;;;;27.77;51.28;100355.50;41711185;28;19925;-80
2023/06/22 14:33:57;;;;;;;;;;;;;;;27.85;51.35;100328.91;41719928;28;20004;-79
2023/06/22 14:54:03;;;;;;;;;;;;;;;27.88;51.83;100319.75;41712536;28;19971;-78
2023/06/22 15:14:04;;;;;;;;;;;;;;;27.96;52.88;100298.50;41748643;28;19933;-82
2023/06/22 15:34:04;;;;;;;;;;;;;;;27.99;52.25;100290.19;41743044;28;20368;-82
2023/06/22 15:54:04;;;;;;;;;;;;;;;28.04;52.89;100293.16;41722983;28;20382;-83
2023/06/22 16:14:08;;;;;;;;;;;;;;;27.95;52.30;100280.84;41707972;28;20500;-84
2023/06/22 16:34:08;;;;;;;;;;;;;;;27.91;52.64;100282.19;41745255;28;19933;-81
2023/06/22 16:54:09;;;;;;;;;;;;;;;27.83;53.43;100259.09;41732654;28;19929;-86
2023/06/22 17:14:11;;;;;;;;;;;;;;;27.85;54.88;100257.06;41723126;28;19935;-83
2023/06/22 17:34:14;;;;;;;;;;;;;;;28.02;56.02;100249.09;41690520;28;19933;-78
2023/06/22 17:54:14;;;;;;;;;;;;;;;28.09;56.02;100242.97;41686927;28;19925;-80
2023/06/22 18:14:18;;;;;;;;;;;;;;;28.10;54.14;100236.63;41675957;28;19929;-76
2023/06/22 18:34:19;;;;;;;;;;;;;;;28.11;53.65;100240.13;41716503;28;20435;-77
2023/06/22 18:54:38;;;;;;;;;;;;;;;28.10;53.16;100268.56;41781025;28;19979;-78
2023/06/22 19:14:39;;;;;;;;;;;;;;;28.10;53.03;100278.41;41760814;28;19932;-78
2023/06/22 19:34:47;;;;;;;;;;;;;;;28.06;52.36;100303.69;41748007;28;20367;-78
2023/06/22 19:54:48;;;;;;;;;;;;;;;28.00;52.45;100297.16;41766044;28;20043;-77
2023/06/22 20:14:48;;;;;;;;;;;;;;;27.84;52.10;100313.13;41720105;28;19928;-78
2023/06/22 20:34:53;;;;;;;;;;;;;;;27.75;52.67;100302.47;41697644;28;19940;-81
2023/06/22 20:54:54;;;;;;;;;;;;;;;27.62;53.09;100302.13;41712826;28;19928;-80
2023/06/22 21:14:55;;;;;;;;;;;;;;;27.49;53.23;100291.97;41706706;28;20491;-79
2023/06/22 21:34:55;;;;;;;;;;;;;;;27.37;54.05;100288.75;41674526;28;19943;-80
2023/06/22 21:54:56;;;;;;;;;;;;;;;27.27;54.68;100269.44;41714661;28;19929;-80
2023/06/22 22:14:57;;;;;;;;;;;;;;;27.20;55.16;100261.28;41716614;28;20134;-80
2023/06/22 22:34:57;;;;;;;;;;;;;;;27.10;55.52;100249.94;41730258;28;19932;-80
2023/06/22 22:54:57;;;;;;;;;;;;;;;27.04;55.75;100246.13;41737436;28;20074;-81
2023/06/22 23:14:58;;;;;;;;;;;;;;;26.94;55.83;100198.44;41731043;28;20393;-81
2023/06/22 23:34:58;;;;;;;;;;;;;;;26.84;55.35;100173.81;41762551;28;19986;-81
2023/06/22 23:54:59;;;;;;;;;;;;;;;26.76;56.08;100164.00;41735561;28;19928;-81
